sensor_id;sensor_type;location;lat;lon;timestamp;pressure;altitude;pressure_sealevel;temperature
67353;BMP180;54238;52.278;21.056;2024-02-14T00:01:35;100837.40;;;6.00
67353;BMP180;54238;52.278;21.056;2024-02-14T00:04:23;100840.40;;;6.00
67353;BMP180;54238;52.278;21.056;2024-02-14T00:07:14;100841.40;;;6.00
67353;BMP180;54238;52.278;21.056;2024-02-14T00:10:01;100842.60;;;5.98
67353;BMP180;54238;52.278;21.056;2024-02-14T00:12:50;100841.40;;;6.00
67353;BMP180;54238;52.278;21.056;2024-02-14T00:15:40;100852.60;;;6.00
67353;BMP180;54238;52.278;21.056;2024-02-14T00:18:27;100856.40;;;6.00
67353;BMP180;54238;52.278;21.056;2024-02-14T00:21:14;100861.20;;;6.00
67353;BMP180;54238;52.278;21.056;2024-02-14T00:24:04;100861.80;;;6.00
67353;BMP180;54238;52.278;21.056;2024-02-14T00:26:51;100867.40;;;6.00
67353;BMP180;54238;52.278;21.056;2024-02-14T00:29:43;100871.80;;;6.00
67353;BMP180;54238;52.278;21.056;2024-02-14T00:32:31;100867.80;;;5.90
67353;BMP180;54238;52.278;21.056;2024-02-14T00:35:24;100870.00;;;5.90
67353;BMP180;54238;52.278;21.056;2024-02-14T00:38:13;100869.00;;;5.90
67353;BMP180;54238;52.278;21.056;2024-02-14T00:41:04;100872.20;;;5.90
67353;BMP180;54238;52.278;21.056;2024-02-14T00:43:51;100867.40;;;5.90
67353;BMP180;54238;52.278;21.056;2024-02-14T00:46:40;100868.60;;;5.92
67353;BMP180;54238;52.278;21.056;2024-02-14T00:49:30;100869.40;;;5.94
67353;BMP180;54238;52.278;21.056;2024-02-14T00:52:23;100868.00;;;5.90
67353;BMP180;54238;52.278;21.056;2024-02-14T00:55:13;100867.80;;;5.90
67353;BMP180;54238;52.278;21.056;2024-02-14T00:58:00;100870.00;;;5.90
67353;BMP180;54238;52.278;21.056;2024-02-14T01:00:49;100867.60;;;5.94
67353;BMP180;54238;52.278;21.056;2024-02-14T01:03:41;100869.80;;;6.00
67353;BMP180;54238;52.278;21.056;2024-02-14T01:06:32;100871.20;;;6.00
67353;BMP180;54238;52.278;21.056;2024-02-14T01:09:19;100873.00;;;6.00
67353;BMP180;54238;52.278;21.056;2024-02-14T01:12:08;100870.40;;;6.00
67353;BMP180;54238;52.278;21.056;2024-02-14T01:14:55;100874.00;;;5.94
67353;BMP180;54238;52.278;21.056;2024-02-14T01:17:42;100875.40;;;5.90
67353;BMP180;54238;52.278;21.056;2024-02-14T01:20:29;100877.40;;;5.90
67353;BMP180;54238;52.278;21.056;2024-02-14T01:23:16;100878.40;;;5.90
67353;BMP180;54238;52.278;21.056;2024-02-14T01:26:06;100875.60;;;5.80
67353;BMP180;54238;52.278;21.056;2024-02-14T01:29:00;100874.60;;;5.80
67353;BMP180;54238;52.278;21.056;2024-02-14T01:31:47;100874.00;;;5.70
67353;BMP180;54238;52.278;21.056;2024-02-14T01:34:35;100876.40;;;5.70
67353;BMP180;54238;52.278;21.056;2024-02-14T01:37:24;100877.00;;;5.64
67353;BMP180;54238;52.278;21.056;2024-02-14T01:40:17;100871.80;;;5.60
67353;BMP180;54238;52.278;21.056;2024-02-14T01:43:06;100871.60;;;5.50
67353;BMP180;54238;52.278;21.056;2024-02-14T01:46:05;100873.60;;;5.50
67353;BMP180;54238;52.278;21.056;2024-02-14T01:48:55;100872.80;;;5.40
67353;BMP180;54238;52.278;21.056;2024-02-14T01:51:46;100874.60;;;5.30
67353;BMP180;54238;52.278;21.056;2024-02-14T01:54:33;100872.80;;;5.30
67353;BMP180;54238;52.278;21.056;2024-02-14T01:57:24;100876.60;;;5.20
67353;BMP180;54238;52.278;21.056;2024-02-14T02:00:15;100873.80;;;5.20
67353;BMP180;54238;52.278;21.056;2024-02-14T02:03:09;100880.00;;;5.12
67353;BMP180;54238;52.278;21.056;2024-02-14T02:05:57;100881.00;;;5.10
67353;BMP180;54238;52.278;21.056;2024-02-14T02:08:47;100885.40;;;5.10
67353;BMP180;54238;52.278;21.056;2024-02-14T02:11:48;100888.80;;;5.00
67353;BMP180;54238;52.278;21.056;2024-02-14T02:14:38;100889.60;;;5.00
67353;BMP180;54238;52.278;21.056;2024-02-14T02:17:29;100895.20;;;4.90
67353;BMP180;54238;52.278;21.056;2024-02-14T02:20:23;100888.60;;;4.90
67353;BMP180;54238;52.278;21.056;2024-02-14T02:23:14;100888.80;;;4.90
67353;BMP180;54238;52.278;21.056;2024-02-14T02:26:02;100889.40;;;4.80
67353;BMP180;54238;52.278;21.056;2024-02-14T02:28:51;100891.00;;;4.80
67353;BMP180;54238;52.278;21.056;2024-02-14T02:31:46;100893.40;;;4.80
67353;BMP180;54238;52.278;21.056;2024-02-14T02:34:35;100898.80;;;4.72
67353;BMP180;54238;52.278;21.056;2024-02-14T02:37:28;100892.80;;;4.70
67353;BMP180;54238;52.278;21.056;2024-02-14T02:40:17;100893.40;;;4.60
67353;BMP180;54238;52.278;21.056;2024-02-14T02:43:06;100896.60;;;4.60
67353;BMP180;54238;52.278;21.056;2024-02-14T02:45:56;100901.60;;;4.60
67353;BMP180;54238;52.278;21.056;2024-02-14T02:48:47;100897.00;;;4.50
67353;BMP180;54238;52.278;21.056;2024-02-14T02:51:35;100900.60;;;4.50
67353;BMP180;54238;52.278;21.056;2024-02-14T02:54:22;100903.80;;;4.50
67353;BMP180;54238;52.278;21.056;2024-02-14T02:57:11;100900.00;;;4.40
67353;BMP180;54238;52.278;21.056;2024-02-14T02:59:58;100898.60;;;4.40
67353;BMP180;54238;52.278;21.056;2024-02-14T03:02:47;100902.80;;;4.40
67353;BMP180;54238;52.278;21.056;2024-02-14T03:05:38;100903.40;;;4.32
67353;BMP180;54238;52.278;21.056;2024-02-14T03:08:25;100901.60;;;4.30
67353;BMP180;54238;52.278;21.056;2024-02-14T03:11:12;100902.20;;;4.30
67353;BMP180;54238;52.278;21.056;2024-02-14T03:14:06;100907.20;;;4.30
67353;BMP180;54238;52.278;21.056;2024-02-14T03:16:59;100911.20;;;4.30
67353;BMP180;54238;52.278;21.056;2024-02-14T03:19:50;100913.00;;;4.26
67353;BMP180;54238;52.278;21.056;2024-02-14T03:22:42;100919.20;;;4.20
67353;BMP180;54238;52.278;21.056;2024-02-14T03:25:31;100917.60;;;4.20
67353;BMP180;54238;52.278;21.056;2024-02-14T03:28:20;100923.80;;;4.20
67353;BMP180;54238;52.278;21.056;2024-02-14T03:31:15;100925.00;;;4.16
67353;BMP180;54238;52.278;21.056;2024-02-14T03:34:08;100932.40;;;4.14
67353;BMP180;54238;52.278;21.056;2024-02-14T03:36:57;100927.40;;;4.14
67353;BMP180;54238;52.278;21.056;2024-02-14T03:39:43;100929.00;;;4.10
67353;BMP180;54238;52.278;21.056;2024-02-14T03:42:35;100927.20;;;4.10
67353;BMP180;54238;52.278;21.056;2024-02-14T03:45:22;100928.60;;;4.10
67353;BMP180;54238;52.278;21.056;2024-02-14T03:48:09;100931.60;;;4.10
67353;BMP180;54238;52.278;21.056;2024-02-14T03:51:02;100931.80;;;4.10
67353;BMP180;54238;52.278;21.056;2024-02-14T03:53:52;100934.60;;;4.10
67353;BMP180;54238;52.278;21.056;2024-02-14T03:56:41;100939.60;;;4.10
67353;BMP180;54238;52.278;21.056;2024-02-14T03:59:35;100939.80;;;4.10
67353;BMP180;54238;52.278;21.056;2024-02-14T04:02:22;100941.20;;;4.10
67353;BMP180;54238;52.278;21.056;2024-02-14T04:05:15;100939.80;;;4.10
67353;BMP180;54238;52.278;21.056;2024-02-14T04:08:09;100944.60;;;4.10
67353;BMP180;54238;52.278;21.056;2024-02-14T04:10:58;100946.20;;;4.20
67353;BMP180;54238;52.278;21.056;2024-02-14T04:13:48;100944.00;;;4.20
67353;BMP180;54238;52.278;21.056;2024-02-14T04:16:37;100946.80;;;4.20
67353;BMP180;54238;52.278;21.056;2024-02-14T04:19:24;100948.40;;;4.20
67353;BMP180;54238;52.278;21.056;2024-02-14T04:22:13;100952.00;;;4.14
67353;BMP180;54238;52.278;21.056;2024-02-14T04:25:07;100953.00;;;4.12
67353;BMP180;54238;52.278;21.056;2024-02-14T04:27:56;100953.80;;;4.10
67353;BMP180;54238;52.278;21.056;2024-02-14T04:30:46;100952.20;;;4.20
67353;BMP180;54238;52.278;21.056;2024-02-14T04:33:35;100951.60;;;4.16
67353;BMP180;54238;52.278;21.056;2024-02-14T04:36:24;100951.00;;;4.14
67353;BMP180;54238;52.278;21.056;2024-02-14T04:39:11;100951.60;;;4.14
67353;BMP180;54238;52.278;21.056;2024-02-14T04:42:02;100952.40;;;4.10
67353;BMP180;54238;52.278;21.056;2024-02-14T04:44:49;100954.20;;;4.10
67353;BMP180;54238;52.278;21.056;2024-02-14T04:47:39;100959.60;;;4.10
67353;BMP180;54238;52.278;21.056;2024-02-14T04:50:29;100959.80;;;4.10
67353;BMP180;54238;52.278;21.056;2024-02-14T04:53:16;100964.00;;;4.10
67353;BMP180;54238;52.278;21.056;2024-02-14T04:56:06;100963.60;;;4.10
67353;BMP180;54238;52.278;21.056;2024-02-14T04:58:56;100968.60;;;4.10
67353;BMP180;54238;52.278;21.056;2024-02-14T05:01:46;100973.60;;;4.10
67353;BMP180;54238;52.278;21.056;2024-02-14T05:04:37;100973.40;;;4.10
67353;BMP180;54238;52.278;21.056;2024-02-14T05:07:29;100973.80;;;4.10
67353;BMP180;54238;52.278;21.056;2024-02-14T05:10:21;100977.40;;;4.10
67353;BMP180;54238;52.278;21.056;2024-02-14T05:13:12;100982.80;;;4.10
67353;BMP180;54238;52.278;21.056;2024-02-14T05:16:05;100977.40;;;4.10
67353;BMP180;54238;52.278;21.056;2024-02-14T05:18:55;100972.80;;;4.10
67353;BMP180;54238;52.278;21.056;2024-02-14T05:21:44;100980.20;;;4.12
67353;BMP180;54238;52.278;21.056;2024-02-14T05:24:34;100981.60;;;4.14
67353;BMP180;54238;52.278;21.056;2024-02-14T05:27:22;100981.00;;;4.16
67353;BMP180;54238;52.278;21.056;2024-02-14T05:30:09;100981.40;;;4.20
67353;BMP180;54238;52.278;21.056;2024-02-14T05:32:58;100983.00;;;4.20
67353;BMP180;54238;52.278;21.056;2024-02-14T05:35:51;100986.00;;;4.20
67353;BMP180;54238;52.278;21.056;2024-02-14T05:38:40;100987.00;;;4.20
67353;BMP180;54238;52.278;21.056;2024-02-14T05:41:27;100985.00;;;4.20
67353;BMP180;54238;52.278;21.056;2024-02-14T05:44:16;100982.40;;;4.20
67353;BMP180;54238;52.278;21.056;2024-02-14T05:47:05;100987.20;;;4.22
67353;BMP180;54238;52.278;21.056;2024-02-14T05:49:54;100986.00;;;4.26
67353;BMP180;54238;52.278;21.056;2024-02-14T05:52:42;100984.40;;;4.30
67353;BMP180;54238;52.278;21.056;2024-02-14T05:55:28;100988.20;;;4.30
67353;BMP180;54238;52.278;21.056;2024-02-14T05:58:20;100989.40;;;4.30
67353;BMP180;54238;52.278;21.056;2024-02-14T06:01:13;100993.60;;;4.30
67353;BMP180;54238;52.278;21.056;2024-02-14T06:04:03;100995.00;;;4.30
67353;BMP180;54238;52.278;21.056;2024-02-14T06:07:00;100999.60;;;4.30
67353;BMP180;54238;52.278;21.056;2024-02-14T06:09:52;101001.20;;;4.30
67353;BMP180;54238;52.278;21.056;2024-02-14T06:12:41;101003.60;;;4.30
67353;BMP180;54238;52.278;21.056;2024-02-14T06:15:29;101002.40;;;4.30
67353;BMP180;54238;52.278;21.056;2024-02-14T06:18:16;101004.80;;;4.30
67353;BMP180;54238;52.278;21.056;2024-02-14T06:21:03;101004.60;;;4.34
67353;BMP180;54238;52.278;21.056;2024-02-14T06:23:50;101011.80;;;4.38
67353;BMP180;54238;52.278;21.056;2024-02-14T06:26:38;101014.40;;;4.40
67353;BMP180;54238;52.278;21.056;2024-02-14T06:29:27;101015.40;;;4.40
67353;BMP180;54238;52.278;21.056;2024-02-14T06:32:16;101016.80;;;4.40
67353;BMP180;54238;52.278;21.056;2024-02-14T06:35:03;101020.40;;;4.40
67353;BMP180;54238;52.278;21.056;2024-02-14T06:37:52;101017.60;;;4.40
67353;BMP180;54238;52.278;21.056;2024-02-14T06:40:42;101015.40;;;4.40
67353;BMP180;54238;52.278;21.056;2024-02-14T06:43:30;101016.60;;;4.50
67353;BMP180;54238;52.278;21.056;2024-02-14T06:46:19;101017.00;;;4.50
67353;BMP180;54238;52.278;21.056;2024-02-14T06:49:08;101018.40;;;4.50
67353;BMP180;54238;52.278;21.056;2024-02-14T06:51:58;101017.60;;;4.60
67353;BMP180;54238;52.278;21.056;2024-02-14T06:54:47;101017.60;;;4.60
67353;BMP180;54238;52.278;21.056;2024-02-14T06:57:37;101022.40;;;4.66
67353;BMP180;54238;52.278;21.056;2024-02-14T07:00:23;101017.80;;;4.70
67353;BMP180;54238;52.278;21.056;2024-02-14T07:03:12;101028.20;;;4.70
67353;BMP180;54238;52.278;21.056;2024-02-14T07:06:02;101030.40;;;4.70
67353;BMP180;54238;52.278;21.056;2024-02-14T07:08:51;101032.40;;;4.80
67353;BMP180;54238;52.278;21.056;2024-02-14T07:11:40;101033.40;;;4.80
67353;BMP180;54238;52.278;21.056;2024-02-14T07:14:29;101030.60;;;4.80
67353;BMP180;54238;52.278;21.056;2024-02-14T07:17:18;101034.20;;;4.90
67353;BMP180;54238;52.278;21.056;2024-02-14T07:20:07;101035.00;;;4.94
67353;BMP180;54238;52.278;21.056;2024-02-14T07:22:57;101035.60;;;5.00
67353;BMP180;54238;52.278;21.056;2024-02-14T07:25:44;101038.00;;;5.00
67353;BMP180;54238;52.278;21.056;2024-02-14T07:28:33;101033.60;;;5.10
67353;BMP180;54238;52.278;21.056;2024-02-14T07:31:28;101036.00;;;5.10
67353;BMP180;54238;52.278;21.056;2024-02-14T07:34:16;101032.20;;;5.22
67353;BMP180;54238;52.278;21.056;2024-02-14T07:37:09;101030.80;;;5.30
67353;BMP180;54238;52.278;21.056;2024-02-14T07:39:58;101033.00;;;5.30
67353;BMP180;54238;52.278;21.056;2024-02-14T07:42:47;101033.40;;;5.40
67353;BMP180;54238;52.278;21.056;2024-02-14T07:45:37;101035.00;;;5.40
67353;BMP180;54238;52.278;21.056;2024-02-14T07:48:24;101034.40;;;5.40
67353;BMP180;54238;52.278;21.056;2024-02-14T07:51:10;101040.80;;;5.50
67353;BMP180;54238;52.278;21.056;2024-02-14T07:54:00;101037.60;;;5.54
67353;BMP180;54238;52.278;21.056;2024-02-14T07:56:49;101039.00;;;5.66
67353;BMP180;54238;52.278;21.056;2024-02-14T07:59:35;101035.20;;;5.80
67353;BMP180;54238;52.278;21.056;2024-02-14T08:02:22;101039.60;;;6.00
67353;BMP180;54238;52.278;21.056;2024-02-14T08:05:12;101039.60;;;6.20
67353;BMP180;54238;52.278;21.056;2024-02-14T08:07:58;101044.80;;;6.40
67353;BMP180;54238;52.278;21.056;2024-02-14T08:10:45;101039.20;;;6.68
67353;BMP180;54238;52.278;21.056;2024-02-14T08:13:32;101039.40;;;6.80
67353;BMP180;54238;52.278;21.056;2024-02-14T08:16:22;101046.60;;;7.00
67353;BMP180;54238;52.278;21.056;2024-02-14T08:19:10;101040.00;;;7.20
67353;BMP180;54238;52.278;21.056;2024-02-14T08:21:57;101047.60;;;7.30
67353;BMP180;54238;52.278;21.056;2024-02-14T08:24:47;101048.20;;;7.50
67353;BMP180;54238;52.278;21.056;2024-02-14T08:27:34;101045.20;;;7.60
67353;BMP180;54238;52.278;21.056;2024-02-14T08:30:23;101043.00;;;7.72
67353;BMP180;54238;52.278;21.056;2024-02-14T08:33:09;101047.60;;;7.90
67353;BMP180;54238;52.278;21.056;2024-02-14T08:35:58;101049.40;;;8.00
67353;BMP180;54238;52.278;21.056;2024-02-14T08:38:47;101047.40;;;8.24
67353;BMP180;54238;52.278;21.056;2024-02-14T08:41:33;101052.00;;;8.50
67353;BMP180;54238;52.278;21.056;2024-02-14T08:44:20;101053.80;;;8.78
67353;BMP180;54238;52.278;21.056;2024-02-14T08:47:07;101058.00;;;8.90
67353;BMP180;54238;52.278;21.056;2024-02-14T08:49:58;101055.40;;;9.10
67353;BMP180;54238;52.278;21.056;2024-02-14T08:52:47;101049.60;;;9.30
67353;BMP180;54238;52.278;21.056;2024-02-14T08:55:36;101054.40;;;9.60
67353;BMP180;54238;52.278;21.056;2024-02-14T08:58:27;101055.80;;;9.86
67353;BMP180;54238;52.278;21.056;2024-02-14T09:01:16;101054.60;;;10.20
67353;BMP180;54238;52.278;21.056;2024-02-14T09:04:05;101056.60;;;10.50
67353;BMP180;54238;52.278;21.056;2024-02-14T09:06:52;101060.80;;;10.78
67353;BMP180;54238;52.278;21.056;2024-02-14T09:09:39;101059.60;;;11.00
67353;BMP180;54238;52.278;21.056;2024-02-14T09:12:26;101059.00;;;11.20
67353;BMP180;54238;52.278;21.056;2024-02-14T09:15:16;101059.20;;;11.32
67353;BMP180;54238;52.278;21.056;2024-02-14T09:18:10;101062.40;;;11.50
67353;BMP180;54238;52.278;21.056;2024-02-14T09:20:57;101063.80;;;11.70
67353;BMP180;54238;52.278;21.056;2024-02-14T09:23:48;101065.00;;;12.08
67353;BMP180;54238;52.278;21.056;2024-02-14T09:26:35;101060.80;;;12.30
67353;BMP180;54238;52.278;21.056;2024-02-14T09:29:21;101059.40;;;12.40
67353;BMP180;54238;52.278;21.056;2024-02-14T09:32:08;101058.80;;;12.60
67353;BMP180;54238;52.278;21.056;2024-02-14T09:34:55;101057.60;;;12.80
67353;BMP180;54238;52.278;21.056;2024-02-14T09:37:42;101055.60;;;13.10
67353;BMP180;54238;52.278;21.056;2024-02-14T09:40:29;101056.20;;;13.20
67353;BMP180;54238;52.278;21.056;2024-02-14T09:43:31;101047.40;;;13.30
67353;BMP180;54238;52.278;21.056;2024-02-14T09:46:24;101048.60;;;13.20
67353;BMP180;54238;52.278;21.056;2024-02-14T09:49:16;101051.80;;;13.22
67353;BMP180;54238;52.278;21.056;2024-02-14T09:52:03;101053.40;;;13.26
67353;BMP180;54238;52.278;21.056;2024-02-14T09:54:52;101061.60;;;13.58
67353;BMP180;54238;52.278;21.056;2024-02-14T09:57:43;101062.00;;;13.70
67353;BMP180;54238;52.278;21.056;2024-02-14T10:00:31;101057.00;;;14.18
67353;BMP180;54238;52.278;21.056;2024-02-14T10:03:23;101056.20;;;14.80
67353;BMP180;54238;52.278;21.056;2024-02-14T10:06:12;101059.80;;;15.16
67353;BMP180;54238;52.278;21.056;2024-02-14T10:09:01;101057.00;;;15.28
67353;BMP180;54238;52.278;21.056;2024-02-14T10:11:56;101053.60;;;15.10
67353;BMP180;54238;52.278;21.056;2024-02-14T10:14:46;101058.40;;;15.00
67353;BMP180;54238;52.278;21.056;2024-02-14T10:17:33;101054.60;;;15.20
67353;BMP180;54238;52.278;21.056;2024-02-14T10:20:22;101055.40;;;15.40
67353;BMP180;54238;52.278;21.056;2024-02-14T10:23:10;101052.20;;;15.40
67353;BMP180;54238;52.278;21.056;2024-02-14T10:25:57;101060.40;;;15.60
67353;BMP180;54238;52.278;21.056;2024-02-14T10:28:45;101054.40;;;15.80
67353;BMP180;54238;52.278;21.056;2024-02-14T10:31:37;101056.40;;;15.70
67353;BMP180;54238;52.278;21.056;2024-02-14T10:34:27;101063.00;;;15.58
67353;BMP180;54238;52.278;21.056;2024-02-14T10:37:17;101051.60;;;15.40
67353;BMP180;54238;52.278;21.056;2024-02-14T10:40:08;101049.80;;;15.40
67353;BMP180;54238;52.278;21.056;2024-02-14T10:42:58;101052.60;;;15.60
67353;BMP180;54238;52.278;21.056;2024-02-14T10:45:50;101043.60;;;15.90
67353;BMP180;54238;52.278;21.056;2024-02-14T10:48:39;101040.00;;;16.30
67353;BMP180;54238;52.278;21.056;2024-02-14T10:51:35;101041.40;;;16.68
67353;BMP180;54238;52.278;21.056;2024-02-14T10:54:24;101042.60;;;17.34
67353;BMP180;54238;52.278;21.056;2024-02-14T10:57:16;101048.20;;;17.50
67353;BMP180;54238;52.278;21.056;2024-02-14T11:00:11;101040.80;;;17.02
67353;BMP180;54238;52.278;21.056;2024-02-14T11:03:05;101040.20;;;17.26
67353;BMP180;54238;52.278;21.056;2024-02-14T11:05:53;101044.00;;;17.50
67353;BMP180;54238;52.278;21.056;2024-02-14T11:11:46;101035.20;;;17.50
67353;BMP180;54238;52.278;21.056;2024-02-14T11:14:35;101033.20;;;17.80
67353;BMP180;54238;52.278;21.056;2024-02-14T11:17:25;101030.40;;;17.80
67353;BMP180;54238;52.278;21.056;2024-02-14T11:20:31;101028.20;;;17.54
67353;BMP180;54238;52.278;21.056;2024-02-14T11:23:22;101030.40;;;17.40
67353;BMP180;54238;52.278;21.056;2024-02-14T11:26:17;101023.20;;;17.20
67353;BMP180;54238;52.278;21.056;2024-02-14T11:29:04;101033.40;;;17.58
67353;BMP180;54238;52.278;21.056;2024-02-14T11:32:03;101026.80;;;17.70
67353;BMP180;54238;52.278;21.056;2024-02-14T11:34:55;101023.40;;;17.90
67353;BMP180;54238;52.278;21.056;2024-02-14T11:37:51;101021.20;;;18.30
67353;BMP180;54238;52.278;21.056;2024-02-14T11:40:40;101018.00;;;18.78
67353;BMP180;54238;52.278;21.056;2024-02-14T11:43:30;101011.60;;;18.60
67353;BMP180;54238;52.278;21.056;2024-02-14T11:46:22;101014.80;;;18.50
67353;BMP180;54238;52.278;21.056;2024-02-14T11:49:15;101012.00;;;18.78
67353;BMP180;54238;52.278;21.056;2024-02-14T11:52:09;101017.80;;;19.10
67353;BMP180;54238;52.278;21.056;2024-02-14T11:55:01;101018.60;;;19.42
67353;BMP180;54238;52.278;21.056;2024-02-14T11:57:52;101017.40;;;19.70
67353;BMP180;54238;52.278;21.056;2024-02-14T12:00:39;101015.00;;;19.40
67353;BMP180;54238;52.278;21.056;2024-02-14T12:03:27;101015.60;;;19.74
67353;BMP180;54238;52.278;21.056;2024-02-14T12:06:18;101016.60;;;20.22
67353;BMP180;54238;52.278;21.056;2024-02-14T12:09:08;101015.60;;;20.68
67353;BMP180;54238;52.278;21.056;2024-02-14T12:12:01;101016.80;;;21.08
67353;BMP180;54238;52.278;21.056;2024-02-14T12:14:52;101013.80;;;20.96
67353;BMP180;54238;52.278;21.056;2024-02-14T12:17:39;101020.20;;;20.76
67353;BMP180;54238;52.278;21.056;2024-02-14T12:20:31;101019.40;;;20.70
67353;BMP180;54238;52.278;21.056;2024-02-14T12:23:21;101023.20;;;21.04
67353;BMP180;54238;52.278;21.056;2024-02-14T12:26:13;101020.40;;;21.52
67353;BMP180;54238;52.278;21.056;2024-02-14T12:29:04;101018.20;;;22.10
67353;BMP180;54238;52.278;21.056;2024-02-14T12:32:06;101017.00;;;22.40
67353;BMP180;54238;52.278;21.056;2024-02-14T12:34:56;101019.80;;;22.60
67353;BMP180;54238;52.278;21.056;2024-02-14T12:37:48;101017.00;;;22.62
67353;BMP180;54238;52.278;21.056;2024-02-14T12:40:36;101015.60;;;22.70
67353;BMP180;54238;52.278;21.056;2024-02-14T12:43:27;101017.20;;;22.60
67353;BMP180;54238;52.278;21.056;2024-02-14T12:46:14;101016.20;;;22.50
67353;BMP180;54238;52.278;21.056;2024-02-14T12:49:03;101011.60;;;22.70
67353;BMP180;54238;52.278;21.056;2024-02-14T12:51:50;101012.20;;;22.98
67353;BMP180;54238;52.278;21.056;2024-02-14T12:54:37;101019.60;;;23.10
67353;BMP180;54238;52.278;21.056;2024-02-14T12:57:23;101016.00;;;23.30
67353;BMP180;54238;52.278;21.056;2024-02-14T13:00:13;101020.80;;;23.54
67353;BMP180;54238;52.278;21.056;2024-02-14T13:03:02;101023.60;;;23.50
67353;BMP180;54238;52.278;21.056;2024-02-14T13:05:52;101020.80;;;23.30
67353;BMP180;54238;52.278;21.056;2024-02-14T13:08:43;101019.00;;;22.90
67353;BMP180;54238;52.278;21.056;2024-02-14T13:11:34;101016.60;;;22.80
67353;BMP180;54238;52.278;21.056;2024-02-14T13:14:26;101018.00;;;22.70
67353;BMP180;54238;52.278;21.056;2024-02-14T13:17:21;101017.00;;;22.40
67353;BMP180;54238;52.278;21.056;2024-02-14T13:20:12;101013.20;;;22.40
67353;BMP180;54238;52.278;21.056;2024-02-14T13:22:59;101016.20;;;22.62
67353;BMP180;54238;52.278;21.056;2024-02-14T13:25:48;101011.20;;;23.00
67353;BMP180;54238;52.278;21.056;2024-02-14T13:28:35;101016.20;;;23.40
67353;BMP180;54238;52.278;21.056;2024-02-14T13:31:23;101016.60;;;23.72
67353;BMP180;54238;52.278;21.056;2024-02-14T13:34:14;101020.60;;;24.06
67353;BMP180;54238;52.278;21.056;2024-02-14T13:37:01;101018.20;;;24.04
67353;BMP180;54238;52.278;21.056;2024-02-14T13:39:52;101016.00;;;23.84
67353;BMP180;54238;52.278;21.056;2024-02-14T13:42:43;101016.40;;;23.60
67353;BMP180;54238;52.278;21.056;2024-02-14T13:45:41;101012.00;;;23.40
67353;BMP180;54238;52.278;21.056;2024-02-14T13:48:35;101019.20;;;23.58
67353;BMP180;54238;52.278;21.056;2024-02-14T13:51:22;101017.60;;;23.80
67353;BMP180;54238;52.278;21.056;2024-02-14T13:54:10;101017.60;;;24.10
67353;BMP180;54238;52.278;21.056;2024-02-14T13:56:56;101010.00;;;24.30
67353;BMP180;54238;52.278;21.056;2024-02-14T13:59:48;101012.20;;;24.30
67353;BMP180;54238;52.278;21.056;2024-02-14T14:02:38;101007.60;;;23.90
67353;BMP180;54238;52.278;21.056;2024-02-14T14:05:28;101014.40;;;23.60
67353;BMP180;54238;52.278;21.056;2024-02-14T14:08:15;101014.20;;;23.30
67353;BMP180;54238;52.278;21.056;2024-02-14T14:11:03;101015.40;;;23.08
67353;BMP180;54238;52.278;21.056;2024-02-14T14:13:50;101016.60;;;22.54
67353;BMP180;54238;52.278;21.056;2024-02-14T14:16:39;101011.60;;;22.00
67353;BMP180;54238;52.278;21.056;2024-02-14T14:19:29;101022.00;;;21.60
67353;BMP180;54238;52.278;21.056;2024-02-14T14:22:19;101022.00;;;21.30
67353;BMP180;54238;52.278;21.056;2024-02-14T14:25:06;101017.00;;;20.80
67353;BMP180;54238;52.278;21.056;2024-02-14T14:27:55;101017.20;;;20.60
67353;BMP180;54238;52.278;21.056;2024-02-14T14:30:47;101015.60;;;20.32
67353;BMP180;54238;52.278;21.056;2024-02-14T14:33:42;101018.00;;;20.10
67353;BMP180;54238;52.278;21.056;2024-02-14T14:36:31;101012.80;;;19.90
67353;BMP180;54238;52.278;21.056;2024-02-14T14:39:22;101015.40;;;19.66
67353;BMP180;54238;52.278;21.056;2024-02-14T14:42:14;101012.20;;;19.54
67353;BMP180;54238;52.278;21.056;2024-02-14T14:45:01;101010.00;;;19.18
67353;BMP180;54238;52.278;21.056;2024-02-14T14:47:50;101015.80;;;18.36
67353;BMP180;54238;52.278;21.056;2024-02-14T14:50:39;101007.00;;;17.40
67353;BMP180;54238;52.278;21.056;2024-02-14T14:53:29;101009.00;;;16.54
67353;BMP180;54238;52.278;21.056;2024-02-14T14:56:16;101002.40;;;15.82
67353;BMP180;54238;52.278;21.056;2024-02-14T14:59:05;101000.00;;;15.20
67353;BMP180;54238;52.278;21.056;2024-02-14T15:01:55;100999.20;;;14.66
67353;BMP180;54238;52.278;21.056;2024-02-14T15:04:41;101002.60;;;14.20
67353;BMP180;54238;52.278;21.056;2024-02-14T15:07:31;100995.20;;;13.80
67353;BMP180;54238;52.278;21.056;2024-02-14T15:10:17;100986.00;;;13.42
67353;BMP180;54238;52.278;21.056;2024-02-14T15:13:08;100990.40;;;13.10
67353;BMP180;54238;52.278;21.056;2024-02-14T15:15:55;100988.20;;;12.80
67353;BMP180;54238;52.278;21.056;2024-02-14T15:18:46;100997.20;;;12.52
67353;BMP180;54238;52.278;21.056;2024-02-14T15:21:38;100996.00;;;12.28
67353;BMP180;54238;52.278;21.056;2024-02-14T15:24:27;100987.40;;;12.00
67353;BMP180;54238;52.278;21.056;2024-02-14T15:27:14;100988.60;;;11.76
67353;BMP180;54238;52.278;21.056;2024-02-14T15:30:08;100988.60;;;11.50
67353;BMP180;54238;52.278;21.056;2024-02-14T15:33:13;100991.00;;;11.30
67353;BMP180;54238;52.278;21.056;2024-02-14T15:36:10;100986.20;;;11.10
67353;BMP180;54238;52.278;21.056;2024-02-14T15:39:01;100990.20;;;10.92
67353;BMP180;54238;52.278;21.056;2024-02-14T15:41:51;100990.00;;;10.80
67353;BMP180;54238;52.278;21.056;2024-02-14T15:44:37;100992.80;;;10.70
67353;BMP180;54238;52.278;21.056;2024-02-14T15:47:26;100988.60;;;10.50
67353;BMP180;54238;52.278;21.056;2024-02-14T15:50:20;100993.00;;;10.40
67353;BMP180;54238;52.278;21.056;2024-02-14T15:53:09;100997.60;;;10.30
67353;BMP180;54238;52.278;21.056;2024-02-14T15:55:57;100995.80;;;10.20
67353;BMP180;54238;52.278;21.056;2024-02-14T15:58:47;100995.40;;;10.14
67353;BMP180;54238;52.278;21.056;2024-02-14T16:01:36;100991.60;;;10.10